x

9444090 - Port Angeles, Wa (ptaw1) Weather Station

5:36am - Wed 2nd Sep 2015 All times are PDT. -7 hours from GMT.

  • Wind
    6mph, 7mph gusts
  • Sea Temp 50°f
  • 空気 Temp 51°f
  • Sea Pressure 1009.6mb
  • 9444090 - Port Angeles, Wa
  • 9444090 - Port Angeles, Wa

More Historic Weather Station data

Upgrade to MSW Pro to gain access to the past 30 days of data for over 8000 Wavebouys and Weather Stations around the globe.

Join Pro

Comparision Forecast

View Surf forecast
   
Wed 09/02 5:36am 6 7 mph 1009.6mb 50f 51f
5:30am 3 5 mph 1009.6mb 50f 52f
5:24am 5
mph
1009.6mb 50f 52f
5:18am 3 5 mph 1009.5mb 50f 52f
5:12am 5 6 mph 1009.5mb 50f 52f
5:06am 2 6 mph 1009.4mb 50f 53f
5:00am 2 6 mph 1009.4mb 50f 53f
4:36am 8 10 mph 1009.1mb 50f 53f
4:30am 6 7 mph 1009.1mb 50f 54f
4:24am 5 8 mph 1009.1mb 50f 54f
4:18am 9 11 mph 1009mb 50f 55f
4:12am 5 9 mph 1008.9mb 50f 55f
4:06am 6 9 mph 1008.8mb 50f 56f
4:00am 5 8 mph 1008.8mb 50f 56f
3:36am 5 7 mph 1008.8mb 50f 56f
3:30am 6 8 mph 1008.8mb 51f 56f
3:24am 5 7 mph 1008.8mb 51f 55f
3:18am 6 8 mph 1008.8mb 51f 56f
3:12am 7 13 mph 1008.8mb 51f 56f
3:06am 8 11 mph 1008.9mb 51f 56f
3:00am 7 10 mph 1008.8mb 51f 56f
2:36am 10 16 mph 1008.7mb 51f 56f
2:30am 6 13 mph 1008.7mb 51f 56f
2:24am 9 14 mph 1008.7mb 51f 56f
2:18am 6 13 mph 1008.7mb 51f 56f
2:12am 7 14 mph 1008.6mb 51f 56f
2:06am 8 11 mph 1008.6mb 51f 56f
2:00am 7 10 mph 1008.6mb 51f 56f
1:36am 5 7 mph 1008.4mb 51f 55f
1:30am 3 5 mph 1008.3mb 51f 55f
1:24am 3 5 mph 1008.3mb 51f 55f
1:18am 6 7 mph 1008.4mb 51f 54f
1:12am 5 11 mph 1008.3mb 51f 55f
1:06am 7 9 mph 1008.3mb 51f 55f
1:00am 7 10 mph 1008.2mb 51f 55f
12:36am 6 7 mph 1008.3mb 51f 55f
12:30am 5 8 mph 1008.3mb 51f 55f
12:24am 3 8 mph 1008.2mb 51f 55f
12:18am 2 6 mph 1008.2mb 51f 56f
12:12am 3 6 mph 1008.3mb 51f 56f
12:06am 3 6 mph 1008.3mb 51f 56f
12:00am 3 6 mph 1008.3mb 51f 56f
Tue 09/01 11:36pm 2 8 mph 1008.3mb 51f 56f
11:30pm 6 7 mph 1008.2mb 51f 56f
11:24pm 2 3 mph 1008.3mb 51f 55f
11:18pm 2 6 mph 1008.2mb 51f 56f
11:12pm 6
mph
1008.1mb 51f 56f
11:06pm 3 6 mph 1008.1mb 51f 56f
11:00pm 5 8 mph 1008.2mb 51f 55f
10:36pm 2 3 mph 1008.2mb 51f 55f
10:30pm 3 6 mph 1008.1mb 50f 54f
10:24pm 6 7 mph 1008.1mb 50f 54f
10:18pm 3
mph
1008mb 50f 55f
10:12pm 2 3 mph 1007.9mb 50f 55f
10:06pm 2 5 mph 1007.9mb 50f 55f
10:00pm 2 6 mph 1007.8mb 50f 56f
9:36pm 6 7 mph 1007.5mb 50f 57f
9:30pm 6 7 mph 1007.6mb 50f 57f
9:24pm 7 9 mph 1007.6mb 50f 57f
9:18pm 6 7 mph 1007.6mb 50f 57f
9:12pm 2 3 mph 1007.6mb 50f 56f
9:06pm  -  5 mph 1007.6mb 50f 56f
9:00pm 2 5 mph 1007.6mb 50f 56f
8:36pm 6 10 mph 1007.8mb 50f 55f
8:30pm 8 9 mph 1007.7mb 51f 55f
8:24pm 7 11 mph 1007.5mb 51f 55f
8:18pm 3 5 mph 1007.4mb 51f 55f
8:12pm 3 5 mph 1007.4mb 51f 56f
8:06pm 3 5 mph 1007.4mb 51f 57f
8:00pm 3 6 mph 1007.3mb 51f 58f
7:36pm  -  1 mph 1007.2mb 51f 58f
7:30pm 1 2 mph 1007.1mb 51f 59f
7:24pm 1
mph
1007.3mb 51f 59f
7:18pm 1 2 mph 1007.3mb 50f 59f
7:12pm 2
mph
1007.4mb 50f 59f
7:06pm 1 2 mph 1007.5mb 50f 60f
7:00pm  -  2 mph 1007.6mb 50f 59f
6:36pm 2 3 mph 1007.6mb 50f 59f
6:30pm 3 6 mph 1007.8mb 50f 58f
6:24pm 3
mph
1007.8mb 50f 58f
6:18pm 2 5 mph 1007.7mb 50f 58f
6:12pm 3
mph
1007.7mb 50f 57f
6:06pm 1 3 mph 1007.8mb 50f 58f
6:00pm 1 2 mph 1007.8mb 50f 58f
5:36pm 2 6 mph 1007.8mb 50f 56f
5:30pm 6
mph
1007.8mb 50f 56f
5:24pm 5 6 mph 1007.9mb 50f 56f
5:18pm 6 8 mph 1007.9mb 50f 56f
5:12pm 7 9 mph 1007.9mb 50f 56f
5:06pm 5 8 mph 1007.9mb 51f 56f
5:00pm 2 3 mph 1007.8mb 51f 56f
4:36pm  -  2 mph 1007.9mb 51f 56f
4:30pm 1 2 mph 1008.1mb 51f 56f
4:24pm 2 3 mph 1008.2mb 51f 56f
4:18pm 2 5 mph 1008.3mb 51f 56f
4:12pm 3 5 mph 1008.3mb 51f 56f
4:06pm 2 3 mph 1008.5mb 51f 56f
4:00pm 3 5 mph 1008.5mb 51f 56f
3:36pm 1 2 mph 1008.7mb 51f 58f
3:30pm 2 3 mph 1008.7mb 51f 57f
3:24pm 3 5 mph 1008.8mb 51f 57f
3:18pm  -  2 mph 1009mb 51f 57f
3:12pm 2 3 mph 1009mb 51f 56f
3:06pm 1 5 mph 1009mb 51f 58f
3:00pm 2 5 mph 1008.8mb 51f 58f
2:36pm 2 3 mph 1009.2mb 51f 56f
2:30pm 2 5 mph 1009.3mb 51f 57f
2:24pm 2 5 mph 1009.3mb 51f 58f
2:18pm 2 3 mph 1009.3mb 51f 58f
2:12pm 2 3 mph 1009.3mb 50f 58f
2:06pm 2 5 mph 1009.2mb 50f 58f
2:00pm 3 6 mph 1009.3mb 50f 58f
1:36pm 2
mph
1009.4mb 50f 57f
1:30pm 3 5 mph 1009.4mb 50f 58f
1:24pm 3 6 mph 1009.5mb 50f 58f
1:18pm 6 8 mph 1009.5mb 50f 58f
1:12pm 2
mph
1009.5mb 50f 58f
1:06pm 2 3 mph 1009.7mb 50f 58f
1:00pm  -  mph 1009.8mb 50f 60f
12:36pm 5 8 mph 1009.9mb 50f 56f
12:30pm 3 5 mph 1009.9mb 50f 56f
12:24pm 2 3 mph 1010mb 50f 56f
12:18pm 1 7 mph 1009.9mb 50f 58f
12:12pm 5 7 mph 1010.1mb 50f 57f
12:06pm 1 2 mph 1010mb 50f 57f
12:00pm 1 2 mph 1010mb 50f 57f
11:36am 2 3 mph 1010mb 50f 56f
11:30am 2 6 mph 1010mb 50f 55f
11:24am 3 7 mph 1009.9mb 50f 54f
11:18am 7 11 mph 1010.1mb 50f 55f
11:12am 6 10 mph 1010.2mb 51f 55f
11:06am 8 9 mph 1010.3mb 51f 56f
11:00am 6
mph
1010.1mb 51f 56f
10:36am 1 5 mph 1009.8mb 51f 57f
10:30am 5
mph
1009.8mb 51f 57f
10:24am 3 5 mph 1009.8mb 51f 56f
10:18am 5 7 mph 1009.6mb 51f 56f
10:12am 6 7 mph 1009.6mb 51f 56f
10:06am 5 6 mph 1009.6mb 51f 56f
10:00am 5 6 mph 1009.6mb 51f 56f
9:36am  -  2 mph 1009.8mb 51f 56f
9:30am  -  3 mph 1009.9mb 51f 57f
9:24am 3 5 mph 1009.9mb 51f 57f
9:18am 5 6 mph 1009.9mb 51f 57f
9:12am 6
mph
1009.9mb 51f 58f
9:06am 3 5 mph 1010mb 51f 58f
9:00am 2
mph
1010.1mb 51f 58f
8:36am 2 5 mph 1010mb 51f 57f
8:30am 2 3 mph 1010mb 51f 57f
8:24am 3 6 mph 1010mb 51f 57f
8:18am 3 5 mph 1010mb 51f 56f
8:12am 2 5 mph 1010mb 51f 57f
8:06am 3 5 mph 1010mb 51f 57f
8:00am 1 2 mph 1010mb 51f 58f
7:36am 2 3 mph 1010.1mb 51f 57f
7:30am 2 3 mph 1010.2mb 51f 57f
7:24am 2 3 mph 1010.2mb 51f 57f
7:18am 1 2 mph 1010.2mb 51f 56f
7:12am 2
mph
1010.1mb 51f 56f
7:06am 2 3 mph 1010.2mb 51f 56f
7:00am  -  1 mph 1010.3mb 51f 57f
6:36am 2
mph
1010.3mb 51f -
6:30am 1 2 mph 1010.4mb 51f -
6:24am  -  2 mph 1010.4mb 51f -
6:18am  -  2 mph 1010.4mb 51f -
6:12am  -  1 mph 1010.6mb 51f -
6:06am 2 3 mph 1010.6mb 51f -
6:00am  -  2 mph 1010.6mb 51f -
5:54am 2
mph
1010.7mb 51f -
5:48am 2 3 mph 1010.7mb 51f -
5:36am 2 5 mph 1010.8mb 51f 57f
5:30am 3
mph
1010.9mb 51f 57f
5:24am 2 3 mph 1010.9mb 51f 57f
5:18am 2 3 mph 1011mb 51f 57f
5:12am 5 6 mph 1011mb 51f 57f
5:06am 5 6 mph 1011mb 51f 57f
5:00am 5 7 mph 1011.1mb 51f 57f
4:54am 6 7 mph 1011.1mb 51f 57f
4:48am 2 6 mph 1011.1mb 51f 57f
4:36am 2 3 mph 1011.2mb 51f 57f
4:30am 2 3 mph 1011.1mb 51f 57f
4:24am 2 5 mph 1011mb 51f 57f
4:18am 5 6 mph 1011mb 51f 58f
4:12am 5 9 mph 1011mb 51f 58f
4:06am 6 8 mph 1011mb 51f 58f
4:00am 3 6 mph 1011.1mb 51f 58f
3:54am 5 6 mph 1011mb 51f 58f
3:48am 3 6 mph 1010.9mb 51f 58f
3:36am 7 9 mph 1010.9mb 51f 58f
3:30am 7 9 mph 1010.9mb 51f 58f
3:24am  -  5 mph 1010.8mb 51f 58f
3:18am 1 2 mph 1010.8mb 51f 58f
3:12am 2 6 mph 1010.7mb 51f 57f
3:06am  -  1 mph 1010.7mb 51f 57f
3:00am  -  2 mph 1010.7mb 51f 57f
2:54am 1 3 mph 1010.7mb 51f 57f
2:48am  -  1 mph 1010.6mb 51f 58f
2:36am  -  3 mph - 51f 57f
2:30am 2 6 mph - 51f 56f
2:24am 3 6 mph - 51f 57f
2:18am 6 8 mph - 51f 57f
2:12am 8 9 mph - 51f 56f
2:06am 8 10 mph - 51f 56f
2:00am 10 13 mph - 51f 56f
1:54am 10 14 mph - 51f 56f
1:48am 13 20 mph - 51f 56f
1:36am 14 18 mph 1009.9mb 51f 56f
1:30am 13 15 mph 1009.7mb 51f 58f
1:24am 7 9 mph 1009.6mb 51f 57f
1:18am 6 7 mph 1009.5mb 51f 58f
1:12am 2 3 mph 1009.3mb 51f 58f
1:06am 2
mph
1009.4mb 51f 58f
1:00am  -  3 mph 1009.3mb 51f 58f
12:54am 2 5 mph 1009.4mb 51f 58f
12:48am 1 3 mph 1009.3mb 51f 58f
12:36am 1 3 mph 1009.4mb 51f 58f
12:30am 1 3 mph 1009.4mb 51f 57f
12:24am 2 5 mph 1009.5mb 51f 57f
12:18am 5
mph
1009.6mb 51f 57f
12:12am 2 3 mph 1009.7mb 51f 56f
12:06am 3 7 mph 1009.6mb 51f 56f
12:00am 3 6 mph 1009.7mb 51f 56f
Mon 08/31 11:54pm 1 3 mph 1009.8mb 51f 56f
11:48pm 3 7 mph 1010mb 51f 56f
11:36pm 3 6 mph 1010.1mb 51f 56f
11:30pm 3 8 mph 1009.9mb 51f 56f
11:24pm 3 6 mph 1009.6mb 51f 56f
11:18pm 3 6 mph 1009.9mb 51f 57f
11:12pm 7 10 mph 1009.8mb 51f 57f
11:06pm 6 9 mph 1009.7mb 51f 57f
11:00pm 6 7 mph 1009.9mb 51f 57f
10:54pm 1 3 mph 1009.8mb 51f 57f
10:48pm 2 5 mph 1009.8mb 51f 57f
10:36pm 3 5 mph 1009.9mb 51f 57f
10:30pm 2 3 mph 1009.8mb 51f 58f
10:24pm 2 3 mph 1009.9mb 51f 59f
10:18pm 2 6 mph 1010mb 51f 58f
10:12pm 5 6 mph 1010mb 51f 57f
10:06pm 3
mph
1010.1mb 51f 57f
10:00pm 2 5 mph 1010.2mb 51f 57f
9:54pm 3 5 mph 1010.1mb 51f 57f
9:48pm 3 5 mph 1010.1mb 51f 56f
9:36pm 3 5 mph 1010mb 51f 56f
9:30pm 2 3 mph 1010mb 51f 57f
9:24pm  -  2 mph 1010mb 51f 58f
9:18pm 1 3 mph 1010mb 51f 56f
9:12pm 5 6 mph 1010mb 51f 56f
9:06pm 6
mph
1010.1mb 51f 56f
9:00pm 6 7 mph 1010.1mb 51f 56f
8:54pm 6
mph
1010.1mb 51f 56f
8:48pm 6
mph
1010.2mb 51f 56f
8:36pm 8 10 mph 1010mb 51f 56f
8:30pm 7 8 mph 1010.1mb 51f 57f
8:24pm 3 7 mph 1009.9mb 51f 57f
8:18pm 8 10 mph 1009.8mb 51f 57f
8:12pm 8 9 mph 1009.9mb 51f 57f
8:06pm 6 8 mph 1010mb 51f 57f
8:00pm 5 8 mph 1010mb 51f 58f
7:54pm 5 7 mph 1009.9mb 51f 60f
7:48pm 6 8 mph 1009.9mb 51f 61f
7:36pm 5 6 mph 1010mb 51f 60f
7:30pm 5
mph
1010.2mb 51f 59f
7:24pm 1 2 mph 1010.1mb 51f 60f
7:18pm 3 6 mph 1010.1mb 51f 60f
7:12pm 1 5 mph 1010.2mb 51f 59f
7:06pm 5
mph
1010.2mb 51f 58f
7:00pm 6 7 mph 1010.2mb 51f 58f
6:54pm 6
mph
1010.3mb 51f 58f
6:48pm 5 6 mph 1010.4mb 51f 58f
6:36pm 5 6 mph 1010.7mb 51f 58f
6:30pm 6 7 mph 1010.7mb 51f 58f
6:24pm 5 6 mph 1010.8mb 51f 59f
6:18pm 3 5 mph 1011mb 51f 58f
6:12pm 3 6 mph 1011.2mb 51f 58f
6:06pm 3 7 mph 1011.2mb 51f 58f
6:00pm 6 7 mph 1011.2mb 51f 58f
5:54pm 2 3 mph 1011.4mb 51f 59f
5:48pm 2 3 mph 1011.3mb 51f 59f
5:36pm 3
mph
1011.3mb 51f 59f
5:30pm 1 2 mph 1011.4mb 51f 58f
5:24pm 2 3 mph 1011.2mb 51f 58f
5:18pm 2 3 mph 1011.1mb 51f 59f
5:12pm 2 3 mph 1011.1mb 51f 58f
5:06pm  -  2 mph 1011.2mb 51f 58f
5:00pm 2 5 mph 1011.2mb 51f 59f
4:54pm  -  3 mph 1011.2mb 51f 59f
4:48pm 2
mph
1011.3mb 51f 58f
4:36pm  -  mph 1011.3mb 51f 58f
3:36pm 1 3 mph 1011.4mb 51f 58f
3:30pm 3 6 mph 1011.4mb 51f 58f
3:24pm 2 8 mph 1011.3mb 51f 59f
3:18pm 1 2 mph 1011.6mb 51f 60f
3:12pm 1 5 mph 1011.7mb 51f 59f
3:06pm 1 2 mph 1011.9mb 51f 60f
3:00pm  -  2 mph 1012.1mb 51f 58f
2:54pm 3
mph
1012.1mb 51f 58f
2:48pm 5
mph
1011.8mb 51f 58f
2:36pm  -  3 mph 1011.9mb 51f 59f
2:30pm 2 3 mph 1012.1mb 51f 58f
2:24pm 1 2 mph 1012.2mb 51f 57f
2:18pm 1 5 mph 1012mb 51f 57f
2:12pm 3 5 mph 1012.2mb 51f 56f
2:06pm 3 5 mph 1012.2mb 51f 57f
2:00pm 5 6 mph 1012.3mb 51f 56f
1:54pm 5 6 mph 1012mb 51f 57f
1:48pm 2 3 mph 1012.2mb 51f 56f
1:36pm  -  2 mph 1012mb 51f 58f
1:30pm 3
mph
1012.1mb 51f 57f
1:24pm 1 3 mph 1011.9mb 51f 56f
1:18pm 5 6 mph 1011.8mb 51f 57f
1:12pm 3 6 mph 1011.9mb 51f 56f
1:06pm 3 5 mph 1011.8mb 51f 56f
1:00pm 2 5 mph 1011.8mb 51f 57f
12:54pm 3 6 mph 1011.8mb 51f 57f
12:48pm 2 5 mph 1011.7mb 51f 57f
12:36pm 5 6 mph 1011.7mb 51f 57f
12:30pm 1 3 mph 1011.7mb 51f 57f
12:24pm  -  3 mph 1011.7mb 51f 58f
12:18pm 3 5 mph 1011.8mb 51f 59f
12:12pm 3
mph
1011.8mb 51f 58f
12:06pm 3 5 mph 1011.9mb 51f 58f
12:00pm 3 5 mph 1011.9mb 51f 58f
11:54am 1 3 mph 1011.8mb 51f 59f
11:48am 2 5 mph 1011.9mb 51f 57f
11:36am 6 9 mph 1012mb 51f 57f
11:30am 6 8 mph 1012.2mb 51f 58f
11:24am 3 5 mph 1012.3mb 51f 58f
11:18am 1 2 mph 1012.2mb 51f 58f
11:12am 2 3 mph 1012.2mb 51f 58f
11:06am 1
mph
1012.1mb 51f 59f
11:00am  -  2 mph 1012.1mb 51f 58f
10:54am 1 2 mph 1011.9mb 51f 58f
10:48am  -  3 mph 1011.9mb 51f 58f
10:36am 3 5 mph - 51f 57f
10:30am  -  1 mph - 51f 57f
10:24am 1 2 mph - 51f 58f
10:18am 1 3 mph - 51f 58f
10:12am 3 5 mph - 51f 57f
10:06am 2 3 mph - 51f 57f
10:00am 2 6 mph - 51f 57f
9:54am 3 6 mph - 51f 56f
9:48am 3 5 mph - 51f 56f
9:36am 1 2 mph 1011.6mb 51f 55f
9:30am 3 5 mph 1011.7mb 51f 55f
9:24am 2 3 mph 1011.7mb 51f 55f
9:18am 3 5 mph 1011.7mb 51f 55f
9:12am 3
mph
1011.7mb 51f 55f
9:06am 2 3 mph 1011.8mb 51f 55f
9:00am 3 5 mph 1011.8mb 51f 55f
8:54am 1 3 mph 1011.9mb 51f 55f
8:48am 2 5 mph 1011.8mb 51f 55f
7:54am 3 6 mph 1011.8mb 51f 56f
7:48am  -  5 mph 1011.9mb 51f 56f
6:54am 1 2 mph 1011.7mb 51f 56f
6:48am 1 2 mph 1011.7mb 51f 56f
5:54am 2 3 mph 1011.3mb 51f 55f
5:48am 1 2 mph 1011.2mb 51f 55f
4:54am 1 2 mph 1011.1mb 51f 56f
4:48am 1 2 mph 1011.2mb 51f 56f
3:54am  -  mph 1011.1mb 51f 56f
3:48am  -  mph 1011.2mb 51f 56f
2:54am  -  2 mph 1011.3mb 51f 57f
2:48am 2
mph
1011.3mb 51f 57f